Terminal Aerodrome Forecast
Issued by NWS Caribou, ME

Home | Current Version | Previous Version | Text Only | Print | Product List | Glossary On
Versions: 1 2 3 4 5 6 7 8 9 10 11 12 13 14 15 16 17 18 19 20
154
FTUS41 KCAR 141058 AAD
TAFBGR
TAF AMD
KBGR 141058Z 1411/1506 32013G20KT 6SM BLSN OVC050
     FM141200 32013KT P6SM SCT070
     FM142200 29009KT P6SM FEW250=

USA.gov is the U.S. government's official web portal to all federal, state and local government web resources and services.